Home > Products > Valid Products > MTR

000
SAUS41 KPHI 020755
MTR12N
METAR K12N 020754Z AUTO 00000KT 07/06 A3000 RMK AO1 SLP163 T00670056
$





000
SAUS41 KPHI 020655
MTR12N
METAR K12N 020654Z AUTO 00000KT 07/06 A3003 RMK AO1 SLP174 T00720056
$





000
SAUS41 KPHI 020655
MTR12N
METAR K12N 020654Z AUTO 00000KT 07/06 A3003 RMK AO1 SLP174 T00720056
$





000
SAUS41 KPHI 020555
MTR12N
METAR K12N 020554Z AUTO 00000KT 07/06 A3004 RMK AO1 SLP177 T00670061
10083 20067 $





000
SAUS41 KPHI 020555
MTR12N
METAR K12N 020554Z AUTO 00000KT 07/06 A3004 RMK AO1 SLP177 T00670061
10083 20067 $





000
SAUS41 KPHI 020455
MTR12N
METAR K12N 020454Z AUTO 00000KT 07/06 A3006 RMK AO1 SLP183 T00720061
401000056 $





000
SAUS41 KPHI 020355
MTR12N
METAR K12N 020354Z AUTO VRB03KT 07/06 A3006 RMK AO1 SLP184 T00720061
$





000
SAUS41 KPHI 020255
MTR12N
METAR K12N 020254Z AUTO 00000KT 08/07 A3008 RMK AO1 SLP190 T00780067
56003





000
SAUS41 KPHI 020155
MTR12N
METAR K12N 020154Z AUTO 00000KT 08/07 A3009 RMK AO1 SLP192 T00780067





000
SAUS41 KPHI 020055
MTR12N
METAR K12N 020054Z AUTO VRB04KT 08/07 A3006 RMK AO1 SLP185 T00780067





000
SAUS41 KPHI 020055
MTR12N
METAR K12N 020054Z AUTO VRB04KT 08/07 A3006 RMK AO1 SLP185 T00780067





000
SAUS41 KPHI 012355
MTR12N
METAR K12N 012354Z AUTO 00000KT 08/07 A3009 RMK AO1 SLP193 60007
T00780067 10083 20078 55002





000
SAUS41 KPHI 012355
MTR12N
METAR K12N 012354Z AUTO 00000KT 08/07 A3009 RMK AO1 SLP193 60007
T00780067 10083 20078 55002





000
SAUS41 KPHI 012255
MTR12N
METAR K12N 012254Z AUTO VRB03KT 08/07 A3008 RMK AO1 SLP191 P0002
T00780067





000
SAUS41 KPHI 012155
MTR12N
METAR K12N 012154Z AUTO 00000KT 08/07 A3009 RMK AO1 SLP193 P0003
T00830067





000
SAUS41 KPHI 012055
MTR12N
METAR K12N 012054Z AUTO 00000KT 08/07 A3009 RMK AO1 SLP195 P0001
60002 T00830067 58010





000
SAUS41 KPHI 011955
MTR12N
METAR K12N 011954Z AUTO VRB03KT 08/07 A3011 RMK AO1 SLP201 T00830067





000
SAUS41 KPHI 011955
MTR12N
METAR K12N 011954Z AUTO VRB03KT 08/07 A3011 RMK AO1 SLP201 T00830067





000
SAUS41 KPHI 011855
MTR12N
METAR K12N 011854Z AUTO VRB04KT 08/07 A3012 RMK AO1 SLP202 P0001
T00830067





000
SAUS41 KPHI 011855
MTR12N
METAR K12N 011854Z AUTO VRB04KT 08/07 A3012 RMK AO1 SLP202 P0001
T00830067





000
SAUS41 KPHI 011755
MTR12N
METAR K12N 011754Z AUTO 00000KT 08/07 A3012 RMK AO1 SLP204 P0003
60014 T00780067 10078 20056 58015





000
SAUS41 KPHI 011755
MTR12N
METAR K12N 011754Z AUTO 00000KT 08/07 A3012 RMK AO1 SLP204 P0003
60014 T00780067 10078 20056 58015





000
SAUS41 KPHI 011655
MTR12N
METAR K12N 011654Z AUTO VRB05KT 07/06 A3014 RMK AO1 SLP211 P0001
T00720061





000
SAUS41 KPHI 011555
MTR12N
METAR K12N 011554Z AUTO VRB05KT 07/04 A3016 RMK AO1 SLP216 P0001
T00670044





000
SAUS41 KPHI 011555
MTR12N
METAR K12N 011554Z AUTO VRB05KT 07/04 A3016 RMK AO1 SLP216 P0001
T00670044





000
SAUS41 KPHI 011455
MTR12N
METAR K12N 011454Z AUTO VRB03KT 06/03 A3017 RMK AO1 SLP221 60009
T00610033 58009





000
SAUS41 KPHI 011455
MTR12N
METAR K12N 011454Z AUTO VRB03KT 06/03 A3017 RMK AO1 SLP221 60009
T00610033 58009





000
SAUS41 KPHI 011355
MTR12N
METAR K12N 011354Z AUTO VRB03KT 06/03 A3018 RMK AO1 SLP226 P0003
T00610028





000
SAUS41 KPHI 011355
MTR12N
METAR K12N 011354Z AUTO VRB03KT 06/03 A3018 RMK AO1 SLP226 P0003
T00610028





000
SAUS41 KPHI 011255
MTR12N
METAR K12N 011254Z AUTO VRB03KT 07/03 A3019 RMK AO1 SLP226 P0006
T00670033





000
SAUS41 KPHI 011255
MTR12N
METAR K12N 011254Z AUTO VRB03KT 07/03 A3019 RMK AO1 SLP226 P0006
T00670033





000
SAUS41 KPHI 011155
MTR12N
METAR K12N 011154Z AUTO 00000KT 07/04 A3020 RMK AO1 SLP229 P0002
60002 70002 T00670044 10094 20067 53006





000
SAUS41 KPHI 011055
MTR12N
METAR K12N 011054Z AUTO 00000KT 07/04 A3019 RMK AO1 SLP225 T00720044





000
SAUS41 KPHI 010955
MTR12N
METAR K12N 010954Z AUTO 00000KT 08/03 A3018 RMK AO1 SLP221 T00780028





000
SAUS41 KPHI 010955
MTR12N
METAR K12N 010954Z AUTO 00000KT 08/03 A3018 RMK AO1 SLP221 T00780028





000
SAUS41 KPHI 010855
MTR12N
METAR K12N 010854Z AUTO 00000KT 08/01 A3018 RMK AO1 SLP221 T00830011
55003





000
SAUS41 KPHI 010755
MTR12N
METAR K12N 010754Z AUTO 00000KT 08/02 A3018 RMK AO1 SLP221 T00830017





000
SAUS41 KPHI 010655
MTR12N
METAR K12N 010654Z AUTO 00000KT 09/01 A3019 RMK AO1 SLP225 T00890011





000
SAUS41 KPHI 010555
MTR12N
METAR K12N 010554Z AUTO 00000KT 09/01 A3019 RMK AO1 SLP224 T00940006
10133 20089 58008





000
SAUS41 KPHI 010455
MTR12N
METAR K12N 010454Z AUTO 14003KT 10/01 A3019 RMK AO1 SLP225 T01000006
401500061





000
SAUS41 KPHI 010355
MTR12N
METAR K12N 010354Z AUTO 00000KT 10/03 A3022 RMK AO1 SLP233 T01000033





000
SAUS41 KPHI 010255
MTR12N
METAR K12N 010254Z AUTO 00000KT 11/03 A3022 RMK AO1 SLP233 T01060028
51004





000
SAUS41 KPHI 010155
MTR12N
METAR K12N 010154Z AUTO VRB03KT 11/04 A3021 RMK AO1 SLP234 T01060044





000
SAUS41 KPHI 010055
MTR12N
METAR K12N 010054Z AUTO 00000KT 11/06 A3021 RMK AO1 SLP234 T01060061





000
SAUS41 KPHI 302355
MTR12N
METAR K12N 302354Z AUTO 22004KT 13/06 A3020 RMK AO1 SLP231 T01330056
10150 20133 50005





000
SAUS41 KPHI 302255
MTR12N
METAR K12N 302254Z AUTO VRB04KT 14/06 A3021 RMK AO1 SLP232 T01390056





000
SAUS41 KPHI 302155
MTR12N
METAR K12N 302154Z AUTO 20003KT 14/05 A3019 RMK AO1 SLP225 T01440050





000
SAUS41 KPHI 302055
MTR12N
METAR K12N 302054Z AUTO 00000KT 14/04 A3019 RMK AO1 SLP225 T01390044
53003





000
SAUS41 KPHI 301955
MTR12N
METAR K12N 301954Z AUTO VRB04KT 14/04 A3018 RMK AO1 SLP221 T01440044





000
SAUS41 KPHI 301855
MTR12N
METAR K12N 301854Z AUTO VRB03KT 14/04 A3019 RMK AO1 SLP226 T01440039





000
SAUS41 KPHI 301755
MTR12N
METAR K12N 301754Z AUTO 00000KT 14/04 A3018 RMK AO1 SLP223 T01440039
10150 20072 58003





000
SAUS41 KPHI 301655
MTR12N
METAR K12N 301654Z AUTO 00000KT 14/05 A3018 RMK AO1 SLP224 T01390050





000
SAUS41 KPHI 301655
MTR12N
METAR K12N 301654Z AUTO 00000KT 14/05 A3018 RMK AO1 SLP224 T01390050





000
SAUS41 KPHI 301555
MTR12N
METAR K12N 301554Z AUTO 00000KT 13/04 A3019 RMK AO1 SLP226 T01280044





000
SAUS41 KPHI 301455
MTR12N
METAR K12N 301454Z AUTO VRB04KT 13/06 A3019 RMK AO1 SLP226 T01280056
58009





000
SAUS41 KPHI 301455
MTR12N
METAR K12N 301454Z AUTO VRB04KT 13/06 A3019 RMK AO1 SLP226 T01280056
58009





000
SAUS41 KPHI 301355
MTR12N
METAR K12N 301354Z AUTO VRB03KT 11/05 A3021 RMK AO1 SLP234 T01060050





000
SAUS41 KPHI 301355
MTR12N
METAR K12N 301354Z AUTO VRB03KT 11/05 A3021 RMK AO1 SLP234 T01060050





000
SAUS41 KPHI 301255
MTR12N
METAR K12N 301254Z AUTO 04003KT 08/04 A3022 RMK AO1 SLP238 T00830044





000
SAUS41 KPHI 301155
MTR12N
METAR K12N 301154Z AUTO VRB03KT 07/04 A3022 RMK AO1 SLP237 70006
T00720044 10072 20061 51019





000
SAUS41 KPHI 301055
MTR12N
METAR K12N 301054Z AUTO 00000KT 06/04 A3021 RMK AO1 SLP235 T00610044





000
SAUS41 KPHI 300955
MTR12N
METAR K12N 300954Z AUTO 04004KT 06/04 A3017 RMK AO1 SLP222 T00610044





000
SAUS41 KPHI 300855
MTR12N
METAR K12N 300854Z AUTO 04005KT 06/04 A3016 RMK AO1 SLP218 T00610044
53001





000
SAUS41 KPHI 300755
MTR12N
METAR K12N 300754Z AUTO 00000KT 06/04 A3015 RMK AO1 SLP214 T00610044





000
SAUS41 KPHI 300755
MTR12N
METAR K12N 300754Z AUTO 00000KT 06/04 A3015 RMK AO1 SLP214 T00610044





000
SAUS41 KPHI 300655
MTR12N
METAR K12N 300654Z AUTO 36003KT 06/04 A3015 RMK AO1 SLP212 T00610044





000
SAUS41 KPHI 300555
MTR12N
METAR K12N 300554Z AUTO 00000KT 06/05 A3016 RMK AO1 SLP216 60002
T00610050 10072 20061 50007





000
SAUS41 KPHI 300555
MTR12N
METAR K12N 300554Z AUTO 00000KT 06/05 A3016 RMK AO1 SLP216 60002
T00610050 10072 20061 50007





000
SAUS41 KPHI 300455
MTR12N
METAR K12N 300454Z AUTO 34003KT 06/05 A3017 RMK AO1 SLP219 T00610050
401280061





000
SAUS41 KPHI 300455
MTR12N
METAR K12N 300454Z AUTO 34003KT 06/05 A3017 RMK AO1 SLP219 T00610050
401280061





000
SAUS41 KPHI 300355
MTR12N
METAR K12N 300354Z AUTO 00000KT 07/05 A3016 RMK AO1 SLP216 T00670050





000
SAUS41 KPHI 300255
MTR12N
METAR K12N 300254Z AUTO 00000KT 07/05 A3014 RMK AO1 SLP209 60002
T00670050 50015





000
SAUS41 KPHI 300155
MTR12N
METAR K12N 300154Z AUTO 00000KT 06/04 A3015 RMK AO1 SLP214 P0002
T00610039





000
SAUS41 KPHI 300055
MTR12N
METAR K12N 300054Z AUTO 05003KT 07/05 A3013 RMK AO1 SLP206 T00720050





000
SAUS41 KPHI 300055
MTR12N
METAR K12N 300054Z AUTO 05003KT 07/05 A3013 RMK AO1 SLP206 T00720050





000
SAUS41 KPHI 292355
MTR12N
METAR K12N 292354Z AUTO 00000KT 07/04 A3009 RMK AO1 SLP194 60004
T00670044 10128 20067 53012





000
SAUS41 KPHI 292355
MTR12N
METAR K12N 292354Z AUTO 00000KT 07/04 A3009 RMK AO1 SLP194 60004
T00670044 10128 20067 53012





000
SAUS41 KPHI 292255
MTR12N
METAR K12N 292254Z AUTO 00000KT 08/04 A3007 RMK AO1 SLP188 P0003
T00780044





000
SAUS41 KPHI 292155
MTR12N
METAR K12N 292154Z AUTO 00000KT 09/03 A3006 RMK AO1 SLP184 P0001
T00940033





000
SAUS41 KPHI 292055
MTR12N
METAR K12N 292054Z AUTO 03004KT 11/01 A3006 RMK AO1 SLP181 T01060006
58002





000
SAUS41 KPHI 292055
MTR12N
METAR K12N 292054Z AUTO 03004KT 11/01 A3006 RMK AO1 SLP181 T01060006
58002





000
SAUS41 KPHI 291955
MTR12N
METAR K12N 291954Z AUTO 04005KT 11/00 A3006 RMK AO1 SLP183 T01110000





000
SAUS41 KPHI 291955
MTR12N
METAR K12N 291954Z AUTO 04005KT 11/00 A3006 RMK AO1 SLP183 T01110000





000
SAUS41 KPHI 291855
MTR12N
METAR K12N 291854Z AUTO VRB04KT 12/M03 A3007 RMK AO1 SLP185
T01171028





000
SAUS41 KPHI 291755
MTR12N
METAR K12N 291754Z AUTO VRB03KT 12/M01 A3006 RMK AO1 SLP182
T01221011 10122 20083 58014





000
SAUS41 KPHI 291655
MTR12N
METAR K12N 291654Z AUTO VRB04KT 12/M01 A3008 RMK AO1 SLP188
T01171011





000
SAUS41 KPHI 291555
MTR12N
METAR K12N 291554Z AUTO VRB06KT 11/00 A3010 RMK AO1 SLP196 T01110000





000
SAUS41 KPHI 291455
MTR12N
METAR K12N 291454Z AUTO VRB06KT 11/00 A3010 RMK AO1 SLP197 T01060000
53005





000
SAUS41 KPHI 291455
MTR12N
METAR K12N 291454Z AUTO VRB06KT 11/00 A3010 RMK AO1 SLP197 T01060000
53005





000
SAUS41 KPHI 291356
MTR12N
METAR K12N 291354Z AUTO VRB03KT 10/00 A3009 RMK AO1 SLP193 T01000000





000
SAUS41 KPHI 291255
MTR12N
METAR K12N 291254Z AUTO VRB04KT 09/02 A3009 RMK AO1 SLP192 T00940017





000
SAUS41 KPHI 291155
MTR12N
METAR K12N 291154Z AUTO 00000KT 08/02 A3009 RMK AO1 SLP192 70001
T00830022 10083 20072 53016





000
SAUS41 KPHI 291155
MTR12N
METAR K12N 291154Z AUTO 00000KT 08/02 A3009 RMK AO1 SLP192 70001
T00830022 10083 20072 53016





000
SAUS41 KPHI 291055
MTR12N
METAR K12N 291054Z AUTO 04003KT 08/04 A3008 RMK AO1 SLP188 T00830039





000
SAUS41 KPHI 290955
MTR12N
METAR K12N 290954Z AUTO 00000KT 08/04 A3005 RMK AO1 SLP179 T00830044





000
SAUS41 KPHI 290855
MTR12N
METAR K12N 290854Z AUTO 04003KT 08/06 A3004 RMK AO1 SLP174 T00780056





    US Dept of Commerce
    National Oceanic and Atmospheric Administration
    National Weather Service
    1325 East West Highway
    Silver Spring, MD 20910
    Page Author: NWS Internet Services Team
Disclaimer
Information Quality
Credits
Glossary
Privacy Policy
Freedom of Information Act (FOIA)
About Us
Career Opportunities